sensor_id;sensor_type;location;lat;lon;timestamp;pressure;altitude;pressure_sealevel;temperature;humidity
65376;BME280;51976;47.332;9.404;2023-07-22T00:00:26;92814.47;;;15.84;84.11
65376;BME280;51976;47.332;9.404;2023-07-22T00:02:51;92804.53;;;15.88;83.89
65376;BME280;51976;47.332;9.404;2023-07-22T00:05:17;92820.41;;;15.86;82.54
65376;BME280;51976;47.332;9.404;2023-07-22T00:07:48;92813.66;;;15.83;82.83
65376;BME280;51976;47.332;9.404;2023-07-22T00:10:14;92820.97;;;15.74;83.62
65376;BME280;51976;47.332;9.404;2023-07-22T00:12:39;92806.81;;;15.86;84.65
65376;BME280;51976;47.332;9.404;2023-07-22T00:15:05;92805.06;;;15.99;84.86
65376;BME280;51976;47.332;9.404;2023-07-22T00:17:31;92811.78;;;16.01;85.05
65376;BME280;51976;47.332;9.404;2023-07-22T00:19:56;92804.72;;;15.91;85.62
65376;BME280;51976;47.332;9.404;2023-07-22T00:22:22;92811.78;;;16.01;85.38
65376;BME280;51976;47.332;9.404;2023-07-22T00:24:47;92803.00;;;16.04;84.15
65376;BME280;51976;47.332;9.404;2023-07-22T00:27:13;92806.88;;;16.12;83.69
65376;BME280;51976;47.332;9.404;2023-07-22T00:29:38;92805.56;;;16.18;83.08
65376;BME280;51976;47.332;9.404;2023-07-22T00:32:05;92798.38;;;16.22;82.89
65376;BME280;51976;47.332;9.404;2023-07-22T00:34:34;92784.44;;;15.98;82.37
65376;BME280;51976;47.332;9.404;2023-07-22T00:36:59;92789.03;;;15.88;82.88
65376;BME280;51976;47.332;9.404;2023-07-22T00:39:24;92793.84;;;15.91;83.23
65376;BME280;51976;47.332;9.404;2023-07-22T00:41:50;92797.25;;;16.06;82.97
65376;BME280;51976;47.332;9.404;2023-07-22T00:44:15;92786.06;;;16.16;82.45
65376;BME280;51976;47.332;9.404;2023-07-22T00:46:40;92788.13;;;16.02;82.75
65376;BME280;51976;47.332;9.404;2023-07-22T00:49:07;92785.22;;;15.98;82.69
65376;BME280;51976;47.332;9.404;2023-07-22T00:51:33;92782.19;;;16.00;83.11
65376;BME280;51976;47.332;9.404;2023-07-22T00:53:58;92776.25;;;15.89;82.55
65376;BME280;51976;47.332;9.404;2023-07-22T00:56:24;92769.22;;;15.79;83.39
65376;BME280;51976;47.332;9.404;2023-07-22T00:58:50;92775.41;;;15.71;82.75
65376;BME280;51976;47.332;9.404;2023-07-22T01:01:15;92781.69;;;15.80;82.69
65376;BME280;51976;47.332;9.404;2023-07-22T01:03:40;92787.09;;;15.72;81.97
65376;BME280;51976;47.332;9.404;2023-07-22T01:06:06;92782.00;;;15.87;81.59
65376;BME280;51976;47.332;9.404;2023-07-22T01:08:32;92794.16;;;15.81;81.90
65376;BME280;51976;47.332;9.404;2023-07-22T01:10:57;92803.91;;;15.91;82.02
65376;BME280;51976;47.332;9.404;2023-07-22T01:13:24;92786.53;;;16.01;81.90
65376;BME280;51976;47.332;9.404;2023-07-22T01:15:49;92799.50;;;16.12;81.61
65376;BME280;51976;47.332;9.404;2023-07-22T01:18:15;92791.66;;;16.11;81.29
65376;BME280;51976;47.332;9.404;2023-07-22T01:20:41;92787.44;;;15.79;81.33
65376;BME280;51976;47.332;9.404;2023-07-22T01:23:07;92775.75;;;15.78;82.15
65376;BME280;51976;47.332;9.404;2023-07-22T01:25:33;92781.84;;;15.84;81.92
65376;BME280;51976;47.332;9.404;2023-07-22T01:27:58;92770.81;;;15.89;81.38
65376;BME280;51976;47.332;9.404;2023-07-22T01:30:24;92768.41;;;15.87;80.66
65376;BME280;51976;47.332;9.404;2023-07-22T01:32:51;92760.88;;;15.76;80.74
65376;BME280;51976;47.332;9.404;2023-07-22T01:35:16;92765.97;;;15.69;81.24
65376;BME280;51976;47.332;9.404;2023-07-22T01:37:42;92762.75;;;15.67;81.99
65376;BME280;51976;47.332;9.404;2023-07-22T01:40:08;92757.84;;;15.77;81.72
65376;BME280;51976;47.332;9.404;2023-07-22T01:42:38;92763.47;;;15.89;81.42
65376;BME280;51976;47.332;9.404;2023-07-22T01:45:04;92761.09;;;16.05;81.18
65376;BME280;51976;47.332;9.404;2023-07-22T01:47:33;92760.97;;;16.10;80.83
65376;BME280;51976;47.332;9.404;2023-07-22T01:49:59;92759.34;;;16.01;80.73
65376;BME280;51976;47.332;9.404;2023-07-22T01:52:25;92756.28;;;15.85;81.28
65376;BME280;51976;47.332;9.404;2023-07-22T01:54:50;92765.53;;;15.93;80.87
65376;BME280;51976;47.332;9.404;2023-07-22T01:57:15;92758.81;;;15.81;80.56
65376;BME280;51976;47.332;9.404;2023-07-22T01:59:41;92760.44;;;15.82;80.17
65376;BME280;51976;47.332;9.404;2023-07-22T02:02:06;92755.16;;;15.86;80.46
65376;BME280;51976;47.332;9.404;2023-07-22T02:04:31;92761.38;;;15.86;80.47
65376;BME280;51976;47.332;9.404;2023-07-22T02:06:57;92765.22;;;15.85;80.50
65376;BME280;51976;47.332;9.404;2023-07-22T02:09:22;92765.69;;;15.87;80.76
65376;BME280;51976;47.332;9.404;2023-07-22T02:11:47;92760.25;;;15.87;80.45
65376;BME280;51976;47.332;9.404;2023-07-22T02:14:13;92755.47;;;15.93;80.25
65376;BME280;51976;47.332;9.404;2023-07-22T02:16:39;92762.22;;;16.04;79.84
65376;BME280;51976;47.332;9.404;2023-07-22T02:19:05;92765.41;;;15.98;79.66
65376;BME280;51976;47.332;9.404;2023-07-22T02:21:30;92761.72;;;16.02;79.64
65376;BME280;51976;47.332;9.404;2023-07-22T02:23:56;92765.25;;;16.03;79.18
65376;BME280;51976;47.332;9.404;2023-07-22T02:26:21;92768.59;;;16.00;79.41
65376;BME280;51976;47.332;9.404;2023-07-22T02:28:47;92778.38;;;16.01;78.86
65376;BME280;51976;47.332;9.404;2023-07-22T02:31:13;92774.84;;;16.00;77.55
65376;BME280;51976;47.332;9.404;2023-07-22T02:33:39;92773.88;;;15.96;77.52
65376;BME280;51976;47.332;9.404;2023-07-22T02:36:04;92781.06;;;15.92;76.80
65376;BME280;51976;47.332;9.404;2023-07-22T02:38:30;92781.19;;;15.78;76.58
65376;BME280;51976;47.332;9.404;2023-07-22T02:41:01;92779.75;;;15.81;76.59
65376;BME280;51976;47.332;9.404;2023-07-22T02:43:27;92787.59;;;15.82;76.57
65376;BME280;51976;47.332;9.404;2023-07-22T02:45:53;92783.44;;;15.76;75.94
65376;BME280;51976;47.332;9.404;2023-07-22T02:48:18;92780.22;;;15.74;75.79
65376;BME280;51976;47.332;9.404;2023-07-22T02:50:44;92785.00;;;15.69;76.22
65376;BME280;51976;47.332;9.404;2023-07-22T02:53:09;92776.44;;;15.53;76.50
65376;BME280;51976;47.332;9.404;2023-07-22T02:55:35;92782.16;;;15.43;77.39
65376;BME280;51976;47.332;9.404;2023-07-22T02:58:00;92783.56;;;15.32;77.97
65376;BME280;51976;47.332;9.404;2023-07-22T03:00:25;92773.25;;;15.20;79.21
65376;BME280;51976;47.332;9.404;2023-07-22T03:02:52;92775.53;;;15.27;80.18
65376;BME280;51976;47.332;9.404;2023-07-22T03:05:18;92773.00;;;15.30;80.25
65376;BME280;51976;47.332;9.404;2023-07-22T03:07:44;92771.91;;;15.40;80.59
65376;BME280;51976;47.332;9.404;2023-07-22T03:10:09;92771.78;;;15.45;80.18
65376;BME280;51976;47.332;9.404;2023-07-22T03:12:36;92772.63;;;15.54;79.77
65376;BME280;51976;47.332;9.404;2023-07-22T03:15:02;92760.63;;;15.55;79.77
65376;BME280;51976;47.332;9.404;2023-07-22T03:17:33;92767.50;;;15.52;79.09
65376;BME280;51976;47.332;9.404;2023-07-22T03:19:59;92771.28;;;15.43;78.69
65376;BME280;51976;47.332;9.404;2023-07-22T03:22:24;92768.88;;;15.41;78.73
65376;BME280;51976;47.332;9.404;2023-07-22T03:24:50;92762.81;;;15.44;78.48
65376;BME280;51976;47.332;9.404;2023-07-22T03:27:15;92769.22;;;15.48;77.93
65376;BME280;51976;47.332;9.404;2023-07-22T03:29:42;92765.47;;;15.58;77.38
65376;BME280;51976;47.332;9.404;2023-07-22T03:32:08;92766.69;;;15.52;77.02
65376;BME280;51976;47.332;9.404;2023-07-22T03:34:34;92765.28;;;15.23;77.89
65376;BME280;51976;47.332;9.404;2023-07-22T03:37:00;92755.50;;;15.14;78.54
65376;BME280;51976;47.332;9.404;2023-07-22T03:39:25;92755.50;;;15.14;79.18
65376;BME280;51976;47.332;9.404;2023-07-22T03:41:51;92760.03;;;15.27;78.83
65376;BME280;51976;47.332;9.404;2023-07-22T03:44:16;92754.13;;;15.34;78.45
65376;BME280;51976;47.332;9.404;2023-07-22T03:46:41;92745.69;;;15.35;78.66
65376;BME280;51976;47.332;9.404;2023-07-22T03:49:07;92736.25;;;15.33;78.61
65376;BME280;51976;47.332;9.404;2023-07-22T03:51:32;92740.75;;;15.37;78.50
65376;BME280;51976;47.332;9.404;2023-07-22T03:53:58;92742.03;;;15.40;78.38
65376;BME280;51976;47.332;9.404;2023-07-22T03:56:23;92743.44;;;15.37;78.44
65376;BME280;51976;47.332;9.404;2023-07-22T03:58:49;92753.34;;;15.33;78.74
65376;BME280;51976;47.332;9.404;2023-07-22T04:01:15;92748.72;;;15.34;78.41
65376;BME280;51976;47.332;9.404;2023-07-22T04:03:40;92755.19;;;15.15;79.08
65376;BME280;51976;47.332;9.404;2023-07-22T04:06:06;92759.81;;;15.15;78.84
65376;BME280;51976;47.332;9.404;2023-07-22T04:08:31;92761.22;;;15.12;78.83
65376;BME280;51976;47.332;9.404;2023-07-22T04:10:57;92766.00;;;15.07;79.07
65376;BME280;51976;47.332;9.404;2023-07-22T04:13:24;92768.22;;;15.05;79.43
65376;BME280;51976;47.332;9.404;2023-07-22T04:15:49;92767.44;;;15.04;78.43
65376;BME280;51976;47.332;9.404;2023-07-22T04:18:16;92762.31;;;15.03;78.60
65376;BME280;51976;47.332;9.404;2023-07-22T04:20:42;92766.00;;;15.07;78.04
65376;BME280;51976;47.332;9.404;2023-07-22T04:23:07;92768.72;;;15.07;77.84
65376;BME280;51976;47.332;9.404;2023-07-22T04:25:33;92765.19;;;15.06;77.72
65376;BME280;51976;47.332;9.404;2023-07-22T04:27:59;92777.31;;;15.00;77.84
65376;BME280;51976;47.332;9.404;2023-07-22T04:30:24;92779.53;;;14.98;78.22
65376;BME280;51976;47.332;9.404;2023-07-22T04:32:50;92780.22;;;15.04;77.94
65376;BME280;51976;47.332;9.404;2023-07-22T04:35:18;92786.00;;;14.88;78.42
65376;BME280;51976;47.332;9.404;2023-07-22T04:37:44;92782.50;;;14.66;78.34
65376;BME280;51976;47.332;9.404;2023-07-22T04:40:11;92795.00;;;14.53;78.71
65376;BME280;51976;47.332;9.404;2023-07-22T04:42:40;92787.88;;;14.57;78.97
65376;BME280;51976;47.332;9.404;2023-07-22T04:45:06;92793.84;;;14.32;80.05
65376;BME280;51976;47.332;9.404;2023-07-22T04:47:32;92796.66;;;14.40;80.36
65376;BME280;51976;47.332;9.404;2023-07-22T04:49:57;92801.06;;;14.50;80.16
65376;BME280;51976;47.332;9.404;2023-07-22T04:52:23;92792.50;;;14.56;80.07
65376;BME280;51976;47.332;9.404;2023-07-22T04:54:48;92786.53;;;14.32;80.44
65376;BME280;51976;47.332;9.404;2023-07-22T04:57:15;92794.78;;;14.27;80.54
65376;BME280;51976;47.332;9.404;2023-07-22T04:59:42;92800.09;;;14.46;80.37
65376;BME280;51976;47.332;9.404;2023-07-22T05:02:07;92804.03;;;14.62;80.06
65376;BME280;51976;47.332;9.404;2023-07-22T05:04:33;92796.69;;;14.63;79.74
65376;BME280;51976;47.332;9.404;2023-07-22T05:06:58;92799.78;;;14.47;79.99
65376;BME280;51976;47.332;9.404;2023-07-22T05:09:24;92803.72;;;14.64;79.36
65376;BME280;51976;47.332;9.404;2023-07-22T05:11:49;92804.72;;;14.68;79.04
65376;BME280;51976;47.332;9.404;2023-07-22T05:14:14;92796.94;;;14.75;78.71
65376;BME280;51976;47.332;9.404;2023-07-22T05:16:40;92814.56;;;14.86;78.62
65376;BME280;51976;47.332;9.404;2023-07-22T05:19:05;92813.47;;;14.87;78.07
65376;BME280;51976;47.332;9.404;2023-07-22T05:21:33;92815.19;;;14.83;78.15
65376;BME280;51976;47.332;9.404;2023-07-22T05:23:59;92801.63;;;14.83;78.70
65376;BME280;51976;47.332;9.404;2023-07-22T05:26:24;92803.91;;;14.89;78.25
65376;BME280;51976;47.332;9.404;2023-07-22T05:28:49;92810.00;;;14.95;77.88
65376;BME280;51976;47.332;9.404;2023-07-22T05:31:16;92802.59;;;15.09;77.45
65376;BME280;51976;47.332;9.404;2023-07-22T05:33:41;92805.91;;;15.06;77.29
65376;BME280;51976;47.332;9.404;2023-07-22T05:36:07;92813.84;;;14.72;77.97
65376;BME280;51976;47.332;9.404;2023-07-22T05:38:32;92809.75;;;14.83;78.71
65376;BME280;51976;47.332;9.404;2023-07-22T05:40:58;92809.09;;;15.00;78.26
65376;BME280;51976;47.332;9.404;2023-07-22T05:43:23;92820.75;;;15.00;78.49
65376;BME280;51976;47.332;9.404;2023-07-22T05:45:49;92816.94;;;15.01;78.52
65376;BME280;51976;47.332;9.404;2023-07-22T05:48:15;92823.16;;;15.02;78.76
65376;BME280;51976;47.332;9.404;2023-07-22T05:50:40;92818.97;;;14.96;78.48
65376;BME280;51976;47.332;9.404;2023-07-22T05:53:06;92821.56;;;15.01;78.82
65376;BME280;51976;47.332;9.404;2023-07-22T05:55:31;92833.06;;;15.06;78.90
65376;BME280;51976;47.332;9.404;2023-07-22T05:57:56;92831.16;;;15.07;79.26
65376;BME280;51976;47.332;9.404;2023-07-22T06:00:22;92828.50;;;15.15;78.79
65376;BME280;51976;47.332;9.404;2023-07-22T06:02:48;92831.31;;;15.33;78.29
65376;BME280;51976;47.332;9.404;2023-07-22T06:05:13;92836.28;;;15.31;78.30
65376;BME280;51976;47.332;9.404;2023-07-22T06:07:39;92842.22;;;15.41;78.01
65376;BME280;51976;47.332;9.404;2023-07-22T06:10:05;92835.06;;;15.45;77.65
65376;BME280;51976;47.332;9.404;2023-07-22T06:12:30;92834.88;;;15.42;77.35
65376;BME280;51976;47.332;9.404;2023-07-22T06:14:56;92840.44;;;15.37;76.76
65376;BME280;51976;47.332;9.404;2023-07-22T06:17:21;92846.34;;;15.39;76.70
65376;BME280;51976;47.332;9.404;2023-07-22T06:19:47;92851.16;;;15.42;75.95
65376;BME280;51976;47.332;9.404;2023-07-22T06:22:12;92840.59;;;15.63;75.69
65376;BME280;51976;47.332;9.404;2023-07-22T06:24:38;92847.72;;;15.81;75.44
65376;BME280;51976;47.332;9.404;2023-07-22T06:27:03;92848.06;;;15.97;75.02
65376;BME280;51976;47.332;9.404;2023-07-22T06:29:29;92839.19;;;16.22;74.93
65376;BME280;51976;47.332;9.404;2023-07-22T06:31:54;92851.69;;;16.32;74.78
65376;BME280;51976;47.332;9.404;2023-07-22T06:34:20;92852.66;;;16.36;74.33
65376;BME280;51976;47.332;9.404;2023-07-22T06:36:45;92845.16;;;16.50;73.95
65376;BME280;51976;47.332;9.404;2023-07-22T06:39:10;92843.72;;;16.52;72.56
65376;BME280;51976;47.332;9.404;2023-07-22T06:41:36;92856.66;;;16.47;72.70
65376;BME280;51976;47.332;9.404;2023-07-22T06:44:01;92853.97;;;16.55;72.68
65376;BME280;51976;47.332;9.404;2023-07-22T06:46:26;92854.34;;;16.88;72.60
65376;BME280;51976;47.332;9.404;2023-07-22T06:48:52;92859.28;;;17.04;71.32
65376;BME280;51976;47.332;9.404;2023-07-22T06:51:17;92862.50;;;16.80;71.50
65376;BME280;51976;47.332;9.404;2023-07-22T06:53:46;92855.16;;;16.89;70.31
65376;BME280;51976;47.332;9.404;2023-07-22T06:56:11;92857.22;;;16.92;69.97
65376;BME280;51976;47.332;9.404;2023-07-22T06:58:37;92853.38;;;16.93;70.31
65376;BME280;51976;47.332;9.404;2023-07-22T07:01:02;92858.03;;;16.92;70.27
65376;BME280;51976;47.332;9.404;2023-07-22T07:03:28;92852.88;;;17.17;70.05
65376;BME280;51976;47.332;9.404;2023-07-22T07:05:54;92863.28;;;17.32;69.63
65376;BME280;51976;47.332;9.404;2023-07-22T07:08:20;92859.41;;;17.42;68.86
65376;BME280;51976;47.332;9.404;2023-07-22T07:10:45;92855.47;;;17.86;68.38
65376;BME280;51976;47.332;9.404;2023-07-22T07:13:11;92849.38;;;17.80;67.78
65376;BME280;51976;47.332;9.404;2023-07-22T07:15:37;92854.81;;;17.89;68.17
65376;BME280;51976;47.332;9.404;2023-07-22T07:18:02;92851.03;;;17.73;67.73
65376;BME280;51976;47.332;9.404;2023-07-22T07:20:28;92863.28;;;17.96;67.02
65376;BME280;51976;47.332;9.404;2023-07-22T07:22:53;92862.03;;;18.23;67.10
65376;BME280;51976;47.332;9.404;2023-07-22T07:25:19;92849.72;;;18.17;66.00
65376;BME280;51976;47.332;9.404;2023-07-22T07:27:44;92850.41;;;17.67;66.86
65376;BME280;51976;47.332;9.404;2023-07-22T07:30:10;92861.75;;;17.78;64.92
65376;BME280;51976;47.332;9.404;2023-07-22T07:32:36;92851.50;;;17.75;65.68
65376;BME280;51976;47.332;9.404;2023-07-22T07:35:01;92856.81;;;17.71;65.03
65376;BME280;51976;47.332;9.404;2023-07-22T07:37:29;92856.94;;;18.13;63.21
65376;BME280;51976;47.332;9.404;2023-07-22T07:39:54;92851.34;;;18.39;61.60
65376;BME280;51976;47.332;9.404;2023-07-22T07:42:25;92855.44;;;18.53;60.38
65376;BME280;51976;47.332;9.404;2023-07-22T07:44:50;92854.22;;;18.42;61.76
65376;BME280;51976;47.332;9.404;2023-07-22T07:47:16;92865.91;;;18.81;60.78
65376;BME280;51976;47.332;9.404;2023-07-22T07:49:41;92851.34;;;18.68;61.36
65376;BME280;51976;47.332;9.404;2023-07-22T07:52:06;92858.91;;;18.33;61.50
65376;BME280;51976;47.332;9.404;2023-07-22T07:54:32;92856.84;;;18.01;62.74
65376;BME280;51976;47.332;9.404;2023-07-22T07:56:57;92863.66;;;18.24;60.05
65376;BME280;51976;47.332;9.404;2023-07-22T07:59:22;92851.50;;;18.42;59.54
65376;BME280;51976;47.332;9.404;2023-07-22T08:01:48;92869.66;;;18.38;60.51
65376;BME280;51976;47.332;9.404;2023-07-22T08:04:13;92861.09;;;18.48;60.18
65376;BME280;51976;47.332;9.404;2023-07-22T08:06:39;92856.44;;;18.49;60.29
65376;BME280;51976;47.332;9.404;2023-07-22T08:09:04;92861.00;;;18.36;60.55
65376;BME280;51976;47.332;9.404;2023-07-22T08:11:30;92852.91;;;18.48;60.39
65376;BME280;51976;47.332;9.404;2023-07-22T08:13:56;92852.97;;;18.69;60.57
65376;BME280;51976;47.332;9.404;2023-07-22T08:16:21;92853.50;;;19.04;61.09
65376;BME280;51976;47.332;9.404;2023-07-22T08:18:47;92862.09;;;18.44;62.38
65376;BME280;51976;47.332;9.404;2023-07-22T08:21:13;92852.25;;;18.51;63.16
65376;BME280;51976;47.332;9.404;2023-07-22T08:23:38;92850.78;;;18.83;62.23
65376;BME280;51976;47.332;9.404;2023-07-22T08:26:05;92851.78;;;18.79;62.34
65376;BME280;51976;47.332;9.404;2023-07-22T08:28:31;92862.03;;;18.82;62.48
65376;BME280;51976;47.332;9.404;2023-07-22T08:30:57;92857.28;;;18.91;62.75
65376;BME280;51976;47.332;9.404;2023-07-22T08:33:23;92857.31;;;19.12;60.80
65376;BME280;51976;47.332;9.404;2023-07-22T08:35:50;92853.16;;;19.06;60.80
65376;BME280;51976;47.332;9.404;2023-07-22T08:38:16;92854.00;;;19.18;61.68
65376;BME280;51976;47.332;9.404;2023-07-22T08:40:42;92850.81;;;19.16;61.66
65376;BME280;51976;47.332;9.404;2023-07-22T08:43:10;92856.22;;;19.04;61.19
65376;BME280;51976;47.332;9.404;2023-07-22T08:45:37;92852.69;;;19.04;61.02
65376;BME280;51976;47.332;9.404;2023-07-22T08:48:05;92854.16;;;19.01;61.20
65376;BME280;51976;47.332;9.404;2023-07-22T08:50:50;92854.31;;;18.84;60.20
65376;BME280;51976;47.332;9.404;2023-07-22T08:53:16;92858.50;;;18.81;59.76
65376;BME280;51976;47.332;9.404;2023-07-22T08:55:44;92856.50;;;18.70;59.75
65376;BME280;51976;47.332;9.404;2023-07-22T08:58:10;92855.63;;;18.48;58.91
65376;BME280;51976;47.332;9.404;2023-07-22T09:00:37;92860.22;;;18.65;59.35
65376;BME280;51976;47.332;9.404;2023-07-22T09:03:03;92859.16;;;18.78;58.86
65376;BME280;51976;47.332;9.404;2023-07-22T09:05:31;92861.91;;;18.99;58.21
65376;BME280;51976;47.332;9.404;2023-07-22T09:07:56;92854.69;;;18.94;59.21
65376;BME280;51976;47.332;9.404;2023-07-22T09:10:24;92852.06;;;18.86;59.20
65376;BME280;51976;47.332;9.404;2023-07-22T09:12:53;92863.50;;;18.79;57.55
65376;BME280;51976;47.332;9.404;2023-07-22T09:15:18;92862.03;;;18.82;57.85
65376;BME280;51976;47.332;9.404;2023-07-22T09:17:44;92862.56;;;18.96;58.26
65376;BME280;51976;47.332;9.404;2023-07-22T09:20:12;92858.84;;;19.01;56.92
65376;BME280;51976;47.332;9.404;2023-07-22T09:22:46;92862.88;;;19.15;56.55
65376;BME280;51976;47.332;9.404;2023-07-22T09:25:22;92863.22;;;19.35;55.05
65376;BME280;51976;47.332;9.404;2023-07-22T09:27:50;92858.66;;;19.39;54.03
65376;BME280;51976;47.332;9.404;2023-07-22T09:30:26;92864.19;;;19.51;54.23
65376;BME280;51976;47.332;9.404;2023-07-22T09:32:54;92857.44;;;19.81;52.29
65376;BME280;51976;47.332;9.404;2023-07-22T09:35:21;92869.47;;;19.56;52.39
65376;BME280;51976;47.332;9.404;2023-07-22T09:37:47;92859.38;;;19.48;52.75
65376;BME280;51976;47.332;9.404;2023-07-22T09:40:21;92867.44;;;19.65;53.00
65376;BME280;51976;47.332;9.404;2023-07-22T09:42:48;92856.13;;;19.54;53.47
65376;BME280;51976;47.332;9.404;2023-07-22T09:45:14;92861.13;;;19.52;54.02
65376;BME280;51976;47.332;9.404;2023-07-22T09:47:44;92857.31;;;19.78;53.64
65376;BME280;51976;47.332;9.404;2023-07-22T09:50:11;92862.03;;;19.89;53.59
65376;BME280;51976;47.332;9.404;2023-07-22T09:52:47;92864.72;;;19.65;56.11
65376;BME280;51976;47.332;9.404;2023-07-22T09:55:18;92872.53;;;19.54;56.65
65376;BME280;51976;47.332;9.404;2023-07-22T09:57:46;92868.72;;;19.80;56.32
65376;BME280;51976;47.332;9.404;2023-07-22T10:00:15;92863.16;;;20.01;53.53
65376;BME280;51976;47.332;9.404;2023-07-22T10:02:42;92862.78;;;19.78;56.17
65376;BME280;51976;47.332;9.404;2023-07-22T10:05:13;92869.72;;;19.42;58.13
65376;BME280;51976;47.332;9.404;2023-07-22T10:07:43;92869.47;;;19.56;57.95
65376;BME280;51976;47.332;9.404;2023-07-22T10:10:10;92870.75;;;19.38;58.45
65376;BME280;51976;47.332;9.404;2023-07-22T10:12:36;92865.09;;;19.01;58.54
65376;BME280;51976;47.332;9.404;2023-07-22T10:15:04;92869.44;;;19.02;58.46
65376;BME280;51976;47.332;9.404;2023-07-22T10:17:30;92869.91;;;18.83;59.10
65376;BME280;51976;47.332;9.404;2023-07-22T10:19:56;92867.16;;;18.83;58.67
65376;BME280;51976;47.332;9.404;2023-07-22T10:22:22;92860.56;;;19.05;58.06
65376;BME280;51976;47.332;9.404;2023-07-22T10:24:48;92868.69;;;18.93;58.09
65376;BME280;51976;47.332;9.404;2023-07-22T10:27:15;92859.56;;;18.89;58.75
65376;BME280;51976;47.332;9.404;2023-07-22T10:29:42;92858.44;;;19.11;58.62
65376;BME280;51976;47.332;9.404;2023-07-22T10:32:10;92860.00;;;19.33;57.90
65376;BME280;51976;47.332;9.404;2023-07-22T10:34:36;92852.69;;;19.24;57.69
65376;BME280;51976;47.332;9.404;2023-07-22T10:37:01;92853.19;;;19.39;57.81
65376;BME280;51976;47.332;9.404;2023-07-22T10:39:28;92838.78;;;19.50;57.03
65376;BME280;51976;47.332;9.404;2023-07-22T10:42:02;92848.31;;;19.65;56.63
65376;BME280;51976;47.332;9.404;2023-07-22T10:44:38;92842.84;;;19.77;56.97
65376;BME280;51976;47.332;9.404;2023-07-22T10:47:04;92843.69;;;19.90;56.79
65376;BME280;51976;47.332;9.404;2023-07-22T10:49:43;92836.59;;;20.01;53.20
65376;BME280;51976;47.332;9.404;2023-07-22T10:52:11;92836.69;;;19.80;50.16
65376;BME280;51976;47.332;9.404;2023-07-22T10:54:37;92828.72;;;19.75;49.86
65376;BME280;51976;47.332;9.404;2023-07-22T10:57:23;92823.38;;;20.03;50.89
65376;BME280;51976;47.332;9.404;2023-07-22T10:59:51;92828.06;;;20.27;50.30
65376;BME280;51976;47.332;9.404;2023-07-22T11:02:27;92821.59;;;20.44;50.53
65376;BME280;51976;47.332;9.404;2023-07-22T11:04:56;92819.84;;;20.76;48.28
65376;BME280;51976;47.332;9.404;2023-07-22T11:07:31;92823.50;;;20.55;47.93
65376;BME280;51976;47.332;9.404;2023-07-22T11:09:57;92811.53;;;20.72;47.63
65376;BME280;51976;47.332;9.404;2023-07-22T11:12:24;92817.22;;;20.67;46.37
65376;BME280;51976;47.332;9.404;2023-07-22T11:14:52;92812.91;;;20.66;46.44
65376;BME280;51976;47.332;9.404;2023-07-22T11:17:27;92804.66;;;20.78;46.73
65376;BME280;51976;47.332;9.404;2023-07-22T11:19:53;92813.63;;;21.03;46.69
65376;BME280;51976;47.332;9.404;2023-07-22T11:22:20;92786.72;;;21.09;45.40
65376;BME280;51976;47.332;9.404;2023-07-22T11:24:45;92799.13;;;21.58;44.95
65376;BME280;51976;47.332;9.404;2023-07-22T11:27:11;92793.91;;;21.69;44.85
65376;BME280;51976;47.332;9.404;2023-07-22T11:29:37;92787.25;;;21.70;44.42
65376;BME280;51976;47.332;9.404;2023-07-22T11:32:03;92790.69;;;21.67;44.84
65376;BME280;51976;47.332;9.404;2023-07-22T11:34:29;92785.50;;;21.93;44.55
65376;BME280;51976;47.332;9.404;2023-07-22T11:36:56;92790.66;;;21.79;44.26
65376;BME280;51976;47.332;9.404;2023-07-22T11:39:24;92787.94;;;21.51;45.19
65376;BME280;51976;47.332;9.404;2023-07-22T11:41:50;92784.19;;;21.28;45.95
65376;BME280;51976;47.332;9.404;2023-07-22T11:44:18;92783.47;;;21.03;46.68
65376;BME280;51976;47.332;9.404;2023-07-22T11:46:59;92782.75;;;21.34;46.42
65376;BME280;51976;47.332;9.404;2023-07-22T11:49:32;92792.53;;;21.47;46.55
65376;BME280;51976;47.332;9.404;2023-07-22T11:52:03;92766.81;;;21.68;45.99
65376;BME280;51976;47.332;9.404;2023-07-22T11:54:29;92778.56;;;21.52;45.44
65376;BME280;51976;47.332;9.404;2023-07-22T11:56:56;92784.63;;;21.74;45.89
65376;BME280;51976;47.332;9.404;2023-07-22T11:59:46;92793.47;;;21.83;45.99
65376;BME280;51976;47.332;9.404;2023-07-22T12:02:16;92788.19;;;22.06;43.90
65376;BME280;51976;47.332;9.404;2023-07-22T12:04:42;92780.06;;;22.09;44.15
65376;BME280;51976;47.332;9.404;2023-07-22T12:07:28;92783.47;;;22.38;43.63
65376;BME280;51976;47.332;9.404;2023-07-22T12:09:55;92784.63;;;22.72;43.51
65376;BME280;51976;47.332;9.404;2023-07-22T12:12:30;92778.34;;;22.36;43.35
65376;BME280;51976;47.332;9.404;2023-07-22T12:15:01;92785.34;;;22.34;43.23
65376;BME280;51976;47.332;9.404;2023-07-22T12:17:29;92781.66;;;22.61;44.06
65376;BME280;51976;47.332;9.404;2023-07-22T12:19:54;92768.56;;;22.54;44.96
65376;BME280;51976;47.332;9.404;2023-07-22T12:22:20;92772.22;;;22.78;43.42
65376;BME280;51976;47.332;9.404;2023-07-22T12:24:47;92771.41;;;22.77;43.54
65376;BME280;51976;47.332;9.404;2023-07-22T12:27:13;92765.84;;;22.74;43.14
65376;BME280;51976;47.332;9.404;2023-07-22T12:29:38;92772.78;;;22.68;43.11
65376;BME280;51976;47.332;9.404;2023-07-22T12:32:04;92762.84;;;22.98;43.13
65376;BME280;51976;47.332;9.404;2023-07-22T12:34:29;92767.78;;;23.08;42.39
65376;BME280;51976;47.332;9.404;2023-07-22T12:36:55;92754.59;;;22.98;42.62
65376;BME280;51976;47.332;9.404;2023-07-22T12:39:20;92760.84;;;23.14;42.23
65376;BME280;51976;47.332;9.404;2023-07-22T12:41:46;92766.16;;;23.26;42.40
65376;BME280;51976;47.332;9.404;2023-07-22T12:44:11;92760.56;;;23.19;42.56
65376;BME280;51976;47.332;9.404;2023-07-22T12:46:36;92755.31;;;23.34;42.33
65376;BME280;51976;47.332;9.404;2023-07-22T12:49:02;92753.66;;;23.29;42.28
65376;BME280;51976;47.332;9.404;2023-07-22T12:51:27;92749.00;;;23.52;42.20
65376;BME280;51976;47.332;9.404;2023-07-22T12:53:53;92741.63;;;23.56;41.81
65376;BME280;51976;47.332;9.404;2023-07-22T12:56:18;92746.63;;;23.51;41.65